Aérodrome :
LOGIN :

S'inscrire | Disclaimer

   EN    FR    IT 

 










Légende :    VFR   VFR Marginal   IFR   IFR Intensif   IFR Très Intensif
Visi : 
Plafond : 
>= 8 km
>= 3000ft
5 à 8 km
1000 à 3000 ft
1500m à 5 km
500 à 1000 ft
800 à 1500m
200 à 500 ft
< 800m
< 200 ft
Symboles :   Orages  Brouillard  Fortes neiges  Fortes précipitations  Vent > 20 kt
SIGMETs :   Divers  Orages  Givrage  Turbulence  Onde Orograph.  Cendres Volcan.







- Altitude de l'aérodrome : 776 ft
- Code IATA : RMS


ETAR - Ramstein Air Base

DERNIER METAR :
  • 132056Z 02011KT 9999 OVC038 00/M04 A3003 RMK AO2A SLP186 53005 $

METARs EXPIRÉS :
  • 131956Z 03010KT 9999 OVC040 00/M04 A3002 RMK AO2A SLP185 T0001 $
  • 131856Z 03010KT 9999 BKN037 00/M04 A3002 RMK AO2A SLP185 T0000 $
  • 131756Z COR 04009KT 9999 BKN037 00/M04 A3002 RMK AO2A SLP185 T1001 10006 21003 50004 $ COR 1807

TAF TAF ETAR
Valide du 13 à 18h jusqu'au 15 à 00h UTC


131813Z 1318/1424 06009KT 9999 SCT010 BKN020 620208 QNH3001INS
BECMG 1400/1401 06009KT 9999 SCT010 BKN017 620208 QNH3003INS
BECMG 1414/1415 07009KT 9999 SCT010 BKN020 620208QNH3013INS
BECMG 1417/1418 08006KT 9999 SCT009 BKN015 620208 QNH3020INS TX03/1415Z TNM02/1403Z
Pas de NOTAMs connus pour ce terrain.



MET'MAP, la Météo Aéronautique d'un coup d'oeil ! - Copyright ORBIFLY Décembre 2007 - Disclaimer

ORBIFLY MET'MAP TEAM :

Programmation & Développement : Alexandra Zaïnal
Conception & Développement : Baudouin d'Aumeries
Co-Programmation & Développement : Marc-Olivier Méhu
Soutien technique & logistique : Manuel Goepfert

Contact : metmap@orbifly.com




SOURCES & CREDITS :

   NOAA